createdAt,value
2023-05-21T00:00:45.951Z,2.13
2023-05-21T00:03:16.510Z,2.42
2023-05-21T00:05:56.016Z,2.83
2023-05-21T00:08:24.999Z,1.60
2023-05-21T00:11:03.721Z,2.85
2023-05-21T00:13:30.623Z,2.33
2023-05-21T00:15:57.719Z,1.50
2023-05-21T00:18:25.863Z,2.20
2023-05-21T00:20:53.142Z,2.00
2023-05-21T00:23:20.092Z,1.88
2023-05-21T00:25:47.237Z,1.97
2023-05-21T00:28:15.320Z,2.35
2023-05-21T00:30:45.891Z,2.63
2023-05-21T00:33:14.109Z,1.48
2023-05-21T00:35:41.215Z,4.75
2023-05-21T00:38:09.593Z,2.20
2023-05-21T00:40:36.522Z,6.53
2023-05-21T00:43:03.603Z,3.22
2023-05-21T00:45:30.535Z,2.30
2023-05-21T00:47:57.867Z,2.17
2023-05-21T00:50:29.529Z,2.97
2023-05-21T00:52:56.957Z,2.53
2023-05-21T00:55:24.861Z,4.03
2023-05-21T00:57:52.181Z,2.40
2023-05-21T01:00:20.797Z,1.73
2023-05-21T01:02:52.272Z,3.30
2023-05-21T01:05:19.601Z,2.92
2023-05-21T01:07:46.882Z,1.90
2023-05-21T01:10:18.011Z,2.13
2023-05-21T01:12:46.072Z,5.90
2023-05-21T01:15:19.372Z,2.83
2023-05-21T01:17:51.744Z,2.15
2023-05-21T01:20:20.406Z,2.50
2023-05-21T01:22:54.550Z,8.80
2023-05-21T01:25:23.005Z,4.68
2023-05-21T01:27:52.848Z,2.57
2023-05-21T01:30:21.352Z,1.75
2023-05-21T01:33:13.825Z,7.70
2023-05-21T01:35:47.118Z,9.13
2023-05-21T01:38:14.144Z,4.20
2023-05-21T01:40:44.593Z,5.37
2023-05-21T01:43:13.281Z,2.53
2023-05-21T01:45:46.584Z,3.33
2023-05-21T01:48:14.988Z,4.18
2023-05-21T01:50:47.404Z,3.17
2023-05-21T01:53:17.491Z,3.97
2023-05-21T01:55:51.714Z,3.75
2023-05-21T01:58:23.112Z,2.40
2023-05-21T02:00:54.249Z,2.33
2023-05-21T02:03:34.039Z,2.25
2023-05-21T02:06:04.341Z,2.97
2023-05-21T02:08:38.823Z,4.43
2023-05-21T02:13:58.324Z,5.38
2023-05-21T02:16:30.226Z,3.38
2023-05-21T02:18:58.059Z,3.53
2023-05-21T02:21:31.958Z,9.73
2023-05-21T02:24:01.534Z,8.00
2023-05-21T02:26:42.008Z,4.07
2023-05-21T02:29:09.505Z,3.30
2023-05-21T02:31:37.204Z,4.40
2023-05-21T02:34:10.599Z,2.63
2023-05-21T02:36:37.792Z,3.13
2023-05-21T02:39:05.087Z,2.38
2023-05-21T02:41:35.378Z,5.25
2023-05-21T02:44:05.306Z,6.40
2023-05-21T02:46:40.970Z,5.18
2023-05-21T02:49:14.028Z,5.00
2023-05-21T02:51:44.775Z,3.75
2023-05-21T02:54:14.120Z,3.47
2023-05-21T02:56:41.026Z,2.40
2023-05-21T02:59:07.631Z,2.95
2023-05-21T03:01:34.739Z,3.92
2023-05-21T03:04:09.113Z,3.90
2023-05-21T03:06:37.140Z,5.80
2023-05-21T03:09:05.934Z,3.70
2023-05-21T03:11:44.303Z,3.47
2023-05-21T03:14:11.427Z,3.53
2023-05-21T03:16:41.907Z,2.78
2023-05-21T03:19:10.058Z,2.72
2023-05-21T03:21:38.685Z,5.30
2023-05-21T03:24:07.177Z,2.75
2023-05-21T03:26:42.146Z,2.55
2023-05-21T03:29:11.131Z,3.60
2023-05-21T03:31:37.940Z,3.63
2023-05-21T03:34:10.766Z,3.20
2023-05-21T03:36:39.499Z,3.15
2023-05-21T03:39:07.249Z,3.42
2023-05-21T03:41:37.362Z,5.43
2023-05-21T03:44:07.874Z,5.90
2023-05-21T03:46:34.830Z,4.70
2023-05-21T03:49:04.681Z,2.72
2023-05-21T03:51:32.061Z,3.45
2023-05-21T03:54:06.981Z,3.95
2023-05-21T03:56:39.093Z,3.10
2023-05-21T03:59:05.938Z,2.53
2023-05-21T04:01:33.690Z,5.20
2023-05-21T04:04:03.350Z,2.60
2023-05-21T04:06:32.746Z,3.00
2023-05-21T04:09:01.718Z,4.25
2023-05-21T04:11:28.815Z,4.70
2023-05-21T04:13:55.642Z,3.38
2023-05-21T04:18:56.041Z,3.17
2023-05-21T04:21:24.304Z,4.10
2023-05-21T04:23:52.515Z,4.23
2023-05-21T04:26:23.346Z,2.92
2023-05-21T04:28:51.641Z,3.63
2023-05-21T04:31:22.819Z,3.03
2023-05-21T04:33:53.021Z,2.85
2023-05-21T04:36:20.367Z,4.83
2023-05-21T04:38:47.417Z,4.60
2023-05-21T04:41:14.817Z,4.82
2023-05-21T04:43:44.069Z,3.97
2023-05-21T04:46:18.854Z,5.30
2023-05-21T04:48:47.174Z,3.07
2023-05-21T04:51:15.383Z,4.13
2023-05-21T04:53:42.680Z,4.85
2023-05-21T04:56:10.117Z,3.33
2023-05-21T04:58:39.505Z,7.78
2023-05-21T05:01:09.087Z,3.93
2023-05-21T05:03:36.852Z,4.85
2023-05-21T05:06:04.673Z,3.30
2023-05-21T05:08:46.466Z,4.13
2023-05-21T05:11:16.655Z,2.40
2023-05-21T05:13:44.075Z,4.13
2023-05-21T05:16:11.569Z,3.25
2023-05-21T05:18:38.422Z,4.90
2023-05-21T05:21:05.282Z,5.18
2023-05-21T05:23:32.010Z,3.50
2023-05-21T05:25:58.985Z,3.17
2023-05-21T05:28:26.129Z,4.10
2023-05-21T05:30:56.306Z,4.05
2023-05-21T05:33:24.494Z,3.17
2023-05-21T05:35:51.259Z,3.17
2023-05-21T05:38:21.437Z,6.27
2023-05-21T05:40:48.166Z,5.32
2023-05-21T05:43:15.520Z,5.93
2023-05-21T05:45:42.398Z,5.47
2023-05-21T05:48:09.404Z,3.95
2023-05-21T05:50:36.168Z,5.03
2023-05-21T05:53:02.812Z,6.18
2023-05-21T05:55:30.733Z,4.68
2023-05-21T05:57:57.568Z,4.93
2023-05-21T06:00:24.402Z,4.07
2023-05-21T06:02:51.367Z,3.37
2023-05-21T06:05:19.023Z,5.30
2023-05-21T06:10:26.597Z,5.95
2023-05-21T06:12:53.389Z,5.88
2023-05-21T06:15:20.472Z,4.23
2023-05-21T06:17:47.776Z,5.85
2023-05-21T06:20:18.903Z,3.38
2023-05-21T06:22:45.920Z,5.03
2023-05-21T06:25:13.082Z,4.97
2023-05-21T06:27:39.678Z,3.43
2023-05-21T06:30:07.648Z,8.18
2023-05-21T06:32:39.464Z,6.30
2023-05-21T06:35:06.623Z,5.57
2023-05-21T06:37:33.225Z,4.60
2023-05-21T06:40:00.989Z,4.67
2023-05-21T06:42:27.604Z,5.93
2023-05-21T06:44:54.834Z,4.47
2023-05-21T06:47:21.971Z,3.83
2023-05-21T06:49:51.392Z,6.18
2023-05-21T06:52:21.821Z,6.53
2023-05-21T06:54:51.005Z,5.72
2023-05-21T06:57:21.680Z,5.13
2023-05-21T06:59:51.133Z,10.20
2023-05-21T07:02:17.827Z,4.32
2023-05-21T07:04:53.857Z,5.33
2023-05-21T07:07:20.884Z,4.07
2023-05-21T07:09:47.674Z,7.88
2023-05-21T07:12:17.171Z,6.70
2023-05-21T07:14:47.125Z,6.07
2023-05-21T07:17:19.329Z,4.57
2023-05-21T07:19:46.163Z,5.15
2023-05-21T07:22:14.374Z,4.05
2023-05-21T07:24:41.353Z,5.97
2023-05-21T07:27:17.751Z,6.45
2023-05-21T07:29:51.948Z,3.77
2023-05-21T07:32:18.981Z,6.05
2023-05-21T07:34:48.014Z,4.63
2023-05-21T07:37:14.861Z,4.35
2023-05-21T07:39:41.375Z,4.00
2023-05-21T07:42:08.026Z,4.47
2023-05-21T07:44:34.859Z,4.78
2023-05-21T07:47:02.465Z,5.20
2023-05-21T07:49:29.169Z,5.10
2023-05-21T07:51:56.311Z,4.50
2023-05-21T07:54:26.494Z,4.77
2023-05-21T07:56:54.664Z,4.97
2023-05-21T07:59:21.308Z,3.90
2023-05-21T08:01:48.079Z,5.15
2023-05-21T08:04:14.874Z,7.43
2023-05-21T08:06:41.828Z,4.50
2023-05-21T08:09:09.924Z,8.48
2023-05-21T08:11:36.923Z,6.28
2023-05-21T08:14:05.609Z,7.68
2023-05-21T08:16:33.637Z,6.07
2023-05-21T08:19:00.436Z,9.20
2023-05-21T08:21:27.090Z,4.97
2023-05-21T08:23:54.602Z,3.33
2023-05-21T08:26:22.178Z,3.65
2023-05-21T08:28:49.019Z,6.10
2023-05-21T08:31:18.542Z,4.23
2023-05-21T08:33:58.726Z,5.38
2023-05-21T08:36:25.632Z,8.13
2023-05-21T08:38:53.947Z,5.63
2023-05-21T08:41:23.314Z,5.68
2023-05-21T08:43:57.964Z,5.13
2023-05-21T08:46:25.905Z,7.35
2023-05-21T08:48:56.856Z,5.47
2023-05-21T08:51:24.548Z,3.45
2023-05-21T08:53:51.213Z,3.97
2023-05-21T08:56:18.423Z,7.73
2023-05-21T08:58:49.755Z,7.60
2023-05-21T09:01:19.975Z,6.07
2023-05-21T09:04:01.695Z,6.32
2023-05-21T09:06:38.974Z,5.88
2023-05-21T09:09:15.278Z,4.77
2023-05-21T09:11:42.437Z,4.18
2023-05-21T09:14:10.988Z,4.10
2023-05-21T09:16:38.993Z,3.42
2023-05-21T09:19:06.176Z,6.28
2023-05-21T09:21:33.333Z,4.27
2023-05-21T09:24:01.749Z,4.75
2023-05-21T09:26:28.750Z,5.18
2023-05-21T09:29:00.918Z,8.15
2023-05-21T09:31:32.435Z,11.07
2023-05-21T09:33:59.842Z,5.57
2023-05-21T09:36:27.956Z,6.70
2023-05-21T09:38:54.529Z,6.65
2023-05-21T09:41:32.124Z,3.42
2023-05-21T09:44:02.557Z,5.53
2023-05-21T09:46:41.962Z,9.13
2023-05-21T09:49:30.120Z,5.07
2023-05-21T09:52:00.468Z,4.15
2023-05-21T09:54:32.432Z,5.90
2023-05-21T09:57:03.243Z,6.65
2023-05-21T09:59:39.763Z,5.87
2023-05-21T10:02:22.108Z,5.90
2023-05-21T10:04:55.662Z,5.65
2023-05-21T10:07:30.374Z,6.85
2023-05-21T10:09:58.191Z,6.43
2023-05-21T10:12:25.640Z,5.33
2023-05-21T10:14:57.924Z,4.10
2023-05-21T10:17:28.795Z,8.77
2023-05-21T10:19:56.895Z,4.93
2023-05-21T10:22:25.041Z,3.83
2023-05-21T10:24:55.216Z,4.10
2023-05-21T10:27:24.119Z,5.50
2023-05-21T10:29:51.086Z,8.80
2023-05-21T10:32:21.930Z,5.05
2023-05-21T10:34:50.018Z,4.82
2023-05-21T10:37:16.980Z,6.03
2023-05-21T10:39:46.243Z,4.50
2023-05-21T10:42:21.470Z,6.57
2023-05-21T10:45:19.451Z,5.53
2023-05-21T10:48:25.183Z,4.78
2023-05-21T10:51:18.569Z,4.07
2023-05-21T10:54:01.698Z,4.68
2023-05-21T10:57:16.947Z,6.97
2023-05-21T10:59:55.287Z,7.13
2023-05-21T11:02:26.162Z,7.38
2023-05-21T11:05:01.166Z,5.00
2023-05-21T11:07:50.471Z,4.00
2023-05-21T11:10:37.899Z,6.32
2023-05-21T11:13:18.921Z,5.57
2023-05-21T11:15:58.089Z,5.28
2023-05-21T11:18:38.145Z,6.67
2023-05-21T11:21:15.986Z,5.18
2023-05-21T11:23:57.459Z,6.93
2023-05-21T11:26:26.339Z,4.60
2023-05-21T11:29:05.161Z,5.22
2023-05-21T11:31:38.749Z,7.90
2023-05-21T11:34:30.290Z,10.32
2023-05-21T11:37:19.239Z,5.70
2023-05-21T11:39:46.191Z,4.57
2023-05-21T11:42:32.235Z,6.38
2023-05-21T11:45:03.174Z,4.53
2023-05-21T11:47:31.634Z,7.63
2023-05-21T11:50:03.634Z,7.55
2023-05-21T11:52:33.605Z,10.27
2023-05-21T11:55:03.510Z,8.27
2023-05-21T11:57:33.103Z,6.13
2023-05-21T12:00:16.464Z,7.10
2023-05-21T12:02:52.271Z,11.05
2023-05-21T12:05:19.238Z,8.10
2023-05-21T12:07:50.918Z,5.85
2023-05-21T12:10:23.745Z,4.60
2023-05-21T12:12:57.712Z,6.45
2023-05-21T12:15:27.299Z,6.68
2023-05-21T12:17:56.068Z,5.15
2023-05-21T12:20:25.236Z,7.40
2023-05-21T12:22:51.942Z,8.43
2023-05-21T12:25:25.614Z,6.13
2023-05-21T12:27:58.217Z,5.18
2023-05-21T12:30:26.050Z,6.38
2023-05-21T12:32:52.903Z,6.32
2023-05-21T12:35:24.175Z,8.60
2023-05-21T12:37:52.742Z,9.90
2023-05-21T12:40:20.620Z,9.75
2023-05-21T12:42:47.767Z,9.05
2023-05-21T12:45:15.031Z,6.13
2023-05-21T12:47:52.953Z,7.83
2023-05-21T12:50:23.161Z,7.55
2023-05-21T12:52:54.752Z,6.07
2023-05-21T12:55:23.776Z,10.25
2023-05-21T12:58:00.049Z,8.05
2023-05-21T13:00:28.123Z,7.10
2023-05-21T13:02:57.437Z,9.27
2023-05-21T13:05:25.416Z,8.10
2023-05-21T13:07:54.392Z,9.80
2023-05-21T13:10:21.290Z,5.70
2023-05-21T13:12:49.981Z,6.40
2023-05-21T13:15:27.265Z,9.00
2023-05-21T13:17:56.553Z,6.20
2023-05-21T13:20:26.528Z,7.13
2023-05-21T13:22:56.392Z,7.93
2023-05-21T13:25:25.297Z,44.23
2023-05-21T13:27:54.364Z,12.98
2023-05-21T13:30:21.998Z,7.88
2023-05-21T13:32:50.749Z,7.40
2023-05-21T13:35:17.805Z,6.55
2023-05-21T13:37:46.686Z,8.83
2023-05-21T13:40:17.524Z,8.18
2023-05-21T13:42:51.864Z,9.25
2023-05-21T13:45:24.695Z,8.00
2023-05-21T13:47:51.541Z,7.88
2023-05-21T13:50:20.818Z,10.80
2023-05-21T13:52:50.276Z,7.78
2023-05-21T13:55:19.928Z,6.85
2023-05-21T13:57:48.835Z,9.43
2023-05-21T14:00:16.341Z,9.90
2023-05-21T14:02:45.898Z,8.23
2023-05-21T14:05:17.676Z,10.63
2023-05-21T14:07:44.539Z,10.82
2023-05-21T14:10:32.514Z,7.50
2023-05-21T14:13:15.465Z,12.40
2023-05-21T14:15:43.524Z,6.20
2023-05-21T14:18:12.553Z,12.18
2023-05-21T14:20:39.555Z,7.22
2023-05-21T14:23:06.316Z,9.27
2023-05-21T14:25:33.514Z,7.43
2023-05-21T14:28:01.097Z,11.60
2023-05-21T14:30:27.688Z,7.22
2023-05-21T14:32:55.981Z,9.95
2023-05-21T14:35:24.965Z,7.63
2023-05-21T14:37:53.232Z,6.03
2023-05-21T14:40:23.427Z,10.90
2023-05-21T14:42:54.765Z,9.27
2023-05-21T14:45:21.595Z,10.82
2023-05-21T14:47:49.077Z,6.15
2023-05-21T14:50:16.631Z,6.93
2023-05-21T14:52:43.550Z,10.20
2023-05-21T14:55:13.010Z,5.88
2023-05-21T14:57:40.226Z,7.57
2023-05-21T15:00:08.486Z,6.28
2023-05-21T15:02:36.173Z,9.15
2023-05-21T15:05:02.904Z,4.63
2023-05-21T15:07:29.547Z,6.60
2023-05-21T15:09:56.411Z,6.55
2023-05-21T15:12:24.488Z,8.20
2023-05-21T15:14:55.698Z,3.70
2023-05-21T15:17:31.245Z,4.17
2023-05-21T15:20:05.906Z,7.63
2023-05-21T15:22:33.229Z,6.63
2023-05-21T15:25:03.851Z,13.90
2023-05-21T15:27:31.277Z,5.00
2023-05-21T15:29:58.881Z,3.50
2023-05-21T15:32:25.876Z,12.55
2023-05-21T15:34:56.054Z,10.05
2023-05-21T15:37:38.361Z,29.23
2023-05-21T15:40:06.241Z,14.00
2023-05-21T15:42:36.038Z,8.43
2023-05-21T15:45:06.992Z,10.70
2023-05-21T15:47:33.993Z,9.90
2023-05-21T15:50:01.140Z,5.68
2023-05-21T15:52:28.294Z,7.20
2023-05-21T15:54:55.649Z,7.00
2023-05-21T15:57:23.079Z,9.07
2023-05-21T15:59:55.087Z,11.75
2023-05-21T16:02:21.751Z,7.60
2023-05-21T16:04:52.573Z,7.90
2023-05-21T16:07:31.068Z,12.07
2023-05-21T16:09:57.882Z,8.60
2023-05-21T16:12:26.465Z,7.68
2023-05-21T16:14:57.179Z,5.55
2023-05-21T16:17:24.263Z,8.32
2023-05-21T16:19:53.526Z,6.80
2023-05-21T16:22:24.172Z,9.63
2023-05-21T16:24:50.930Z,9.52
2023-05-21T16:27:21.998Z,8.50
2023-05-21T16:29:50.132Z,5.55
2023-05-21T16:32:17.172Z,7.17
2023-05-21T16:34:44.402Z,4.05
2023-05-21T16:37:11.728Z,5.78
2023-05-21T16:39:40.669Z,4.00
2023-05-21T16:42:32.813Z,5.05
2023-05-21T16:45:08.113Z,10.00
2023-05-21T16:47:37.783Z,9.65
2023-05-21T16:50:29.127Z,14.73
2023-05-21T16:53:04.426Z,7.47
2023-05-21T16:55:42.630Z,5.18
2023-05-21T16:58:16.836Z,5.00
2023-05-21T17:00:44.553Z,7.47
2023-05-21T17:03:13.688Z,4.97
2023-05-21T17:05:43.502Z,8.93
2023-05-21T17:08:32.102Z,6.20
2023-05-21T17:10:59.357Z,8.77
2023-05-21T17:13:59.015Z,6.97
2023-05-21T17:16:25.893Z,7.35
2023-05-21T17:18:55.660Z,5.97
2023-05-21T17:21:33.706Z,5.07
2023-05-21T17:24:10.760Z,7.60
2023-05-21T17:26:39.554Z,7.43
2023-05-21T17:29:34.882Z,8.35
2023-05-21T17:35:03.670Z,6.78
2023-05-21T17:37:39.758Z,6.97
2023-05-21T17:40:08.620Z,7.65
2023-05-21T17:42:50.922Z,6.47
2023-05-21T17:45:36.329Z,6.97
2023-05-21T17:48:23.401Z,6.45
2023-05-21T17:50:54.762Z,11.43
2023-05-21T17:56:15.549Z,8.82
2023-05-21T17:58:42.178Z,7.78
2023-05-21T18:01:08.852Z,11.18
2023-05-21T18:03:36.036Z,10.82
2023-05-21T18:06:02.714Z,14.83
2023-05-21T18:11:11.262Z,9.30
2023-05-21T18:13:38.189Z,8.38
2023-05-21T18:16:09.201Z,8.52
2023-05-21T18:18:36.064Z,9.90
2023-05-21T18:21:05.836Z,11.85
2023-05-21T18:23:33.481Z,12.43
2023-05-21T18:26:00.214Z,8.65
2023-05-21T18:28:29.594Z,9.02
2023-05-21T18:31:01.046Z,9.97
2023-05-21T18:33:27.781Z,8.55
2023-05-21T18:35:54.851Z,11.38
2023-05-21T18:38:23.370Z,11.30
2023-05-21T18:40:54.976Z,7.40
2023-05-21T18:43:21.621Z,8.07
2023-05-21T18:45:48.261Z,8.65
2023-05-21T18:48:16.890Z,10.18
2023-05-21T18:50:43.824Z,12.57
2023-05-21T18:53:14.600Z,8.68
2023-05-21T18:55:41.492Z,34.03
2023-05-21T18:58:08.105Z,14.90
2023-05-21T19:00:38.005Z,8.02
2023-05-21T19:03:04.955Z,10.50
2023-05-21T19:05:34.156Z,16.58
2023-05-21T19:08:01.088Z,11.20
2023-05-21T19:10:27.795Z,11.10
2023-05-21T19:12:54.631Z,12.35
2023-05-21T19:15:22.008Z,12.75
2023-05-21T19:17:51.859Z,10.82
2023-05-21T19:20:25.263Z,13.20
2023-05-21T19:22:51.973Z,10.13
2023-05-21T19:25:21.492Z,21.17
2023-05-21T19:27:48.490Z,16.17
2023-05-21T19:30:17.892Z,13.00
2023-05-21T19:32:49.199Z,12.60
2023-05-21T19:35:16.901Z,11.73
2023-05-21T19:37:43.816Z,16.42
2023-05-21T19:40:19.779Z,12.25
2023-05-21T19:42:46.598Z,12.10
2023-05-21T19:45:13.469Z,12.33
2023-05-21T19:47:41.447Z,13.30
2023-05-21T19:50:21.892Z,13.68
2023-05-21T19:52:49.016Z,12.18
2023-05-21T19:55:23.339Z,10.75
2023-05-21T19:57:52.621Z,12.07
2023-05-21T20:00:21.621Z,12.63
2023-05-21T20:02:48.203Z,14.80
2023-05-21T20:05:16.940Z,13.13
2023-05-21T20:07:43.886Z,11.23
2023-05-21T20:10:13.708Z,17.50
2023-05-21T20:12:40.767Z,11.20
2023-05-21T20:15:08.058Z,9.57
2023-05-21T20:17:36.012Z,10.90
2023-05-21T20:20:05.616Z,12.32
2023-05-21T20:22:33.396Z,15.53
2023-05-21T20:25:01.904Z,14.23
2023-05-21T20:27:31.237Z,19.20
2023-05-21T20:29:59.883Z,11.30
2023-05-21T20:32:27.248Z,11.50
2023-05-21T20:35:02.672Z,11.77
2023-05-21T20:37:32.794Z,15.55
2023-05-21T20:40:03.418Z,13.45
2023-05-21T20:42:34.391Z,11.20
2023-05-21T20:45:06.708Z,10.73
2023-05-21T20:47:40.586Z,10.70
2023-05-21T20:50:30.672Z,14.18
2023-05-21T20:53:25.196Z,13.32
2023-05-21T20:56:00.466Z,13.15
2023-05-21T20:58:27.389Z,12.82
2023-05-21T21:00:55.651Z,12.03
2023-05-21T21:03:22.719Z,12.60
2023-05-21T21:05:53.083Z,12.20
2023-05-21T21:08:20.318Z,17.48
2023-05-21T21:10:47.174Z,14.45
2023-05-21T21:13:15.022Z,13.73
2023-05-21T21:15:44.089Z,12.23
2023-05-21T21:18:12.478Z,13.55
2023-05-21T21:20:39.813Z,12.13
2023-05-21T21:23:06.613Z,13.57
2023-05-21T21:25:33.888Z,13.60
2023-05-21T21:28:05.025Z,12.25
2023-05-21T21:30:35.484Z,17.65
2023-05-21T21:33:02.125Z,13.68
2023-05-21T21:35:29.467Z,13.02
2023-05-21T21:38:00.292Z,12.83
2023-05-21T21:40:29.887Z,14.85
2023-05-21T21:42:59.783Z,14.77
2023-05-21T21:45:31.550Z,14.73
2023-05-21T21:47:59.829Z,17.25
2023-05-21T21:50:29.200Z,10.97
2023-05-21T21:55:46.169Z,15.82
2023-05-21T21:58:16.097Z,14.77
2023-05-21T22:00:43.603Z,11.35
2023-05-21T22:03:25.427Z,18.90
2023-05-21T22:05:52.274Z,17.20
2023-05-21T22:08:19.955Z,12.83
2023-05-21T22:10:49.821Z,17.27
2023-05-21T22:13:20.316Z,14.77
2023-05-21T22:16:13.413Z,17.20
2023-05-21T22:18:43.728Z,14.75
2023-05-21T22:21:14.789Z,17.00
2023-05-21T22:23:43.128Z,22.90
2023-05-21T22:26:10.121Z,14.70
2023-05-21T22:28:36.986Z,16.42
2023-05-21T22:31:03.880Z,13.38
2023-05-21T22:33:35.876Z,17.27
2023-05-21T22:36:02.512Z,16.25
2023-05-21T22:38:29.414Z,16.75
2023-05-21T22:40:56.544Z,14.07
2023-05-21T22:43:23.216Z,15.10
2023-05-21T22:45:51.407Z,12.57
2023-05-21T22:48:18.506Z,18.75
2023-05-21T22:50:46.449Z,16.70
2023-05-21T22:53:13.408Z,20.48
2023-05-21T22:56:16.290Z,15.10
2023-05-21T22:58:48.664Z,12.77
2023-05-21T23:01:21.299Z,20.67
2023-05-21T23:03:51.290Z,16.67
2023-05-21T23:06:22.539Z,21.08
2023-05-21T23:08:51.782Z,17.67
2023-05-21T23:11:21.686Z,18.40
2023-05-21T23:13:48.829Z,15.57
2023-05-21T23:16:17.357Z,17.35
2023-05-21T23:18:46.152Z,14.15
2023-05-21T23:21:15.268Z,15.07
2023-05-21T23:23:42.336Z,19.47
2023-05-21T23:26:09.194Z,14.23
2023-05-21T23:28:38.914Z,19.20
2023-05-21T23:31:08.127Z,14.18
2023-05-21T23:33:37.923Z,18.98
2023-05-21T23:36:05.360Z,22.97
2023-05-21T23:38:32.618Z,17.77
2023-05-21T23:41:00.915Z,17.88
2023-05-21T23:43:29.038Z,18.15
2023-05-21T23:45:56.058Z,21.85
2023-05-21T23:48:22.999Z,16.53
2023-05-21T23:50:53.363Z,16.20
2023-05-21T23:53:22.913Z,23.67
2023-05-21T23:55:52.743Z,16.38
2023-05-21T23:58:20.166Z,13.77
